Terminal Aerodrome Forecast
Issued by NWS Louisville, KY

Home | Current Version | Previous Version | Text Only | Print | Product List | Glossary On
Versions: 1 2 3 4 5 6 7 8 9 10 11 12 13 14 15
101
FTUS43 KLMK 141739
TAFLEX
TAF
KLEX 141739Z 1418/1518 20009KT P6SM SCT025
     FM151100 21011KT P6SM BKN200
     FM151200 21012KT P6SM SCT100
     FM151400 22015G23KT P6SM BKN030 PROB30 1514/1516 -SHRA BKN025
     FM151600 23016G26KT P6SM -SHRA BKN015=

USA.gov is the U.S. government's official web portal to all federal, state and local government web resources and services.